Station: Tarcoola

  Atmospheric Gas Attenuation - ITU Rec 676-11   --------------- db/100km ---------------
Date Time Temp RH % AH g/m3 Dew Point Wind Direction Speed kph Gust kph Barometer mB Rainfall Since 9am 24GHz 47GHz 76GHz 122GHz 134GHz 241GHz
24 19:50 33.9 25 9.34 11.1 19 22 999.9 0 20.2 21.3 32.9 86.6 83.2 287.8
24 19:40 33.9 25 9.34 11.1 22 28 999.9 0 20.2 21.3 32.9 86.6 83.2 287.8
24 19:30 34.1 24 9.06 10.7 17 22 999.7 0 19.6 20.9 32.0 84.1 80.2 277.0
24 19:20 34.2 24 9.1 10.7 17 19 1000 0 19.7 21.0 32.1 84.3 80.5 278.2
24 19:10 34.3 23 8.77 10.2 19 24 1000 0 19.0 20.5 31.0 81.5 77.1 266.2
24 19:00 34.1 24 9.06 10.7 22 28 999.9 0 19.6 20.9 32.0 84.1 80.2 277.1
24 18:50 33.9 24 8.96 10.5 24 28 1000 0 19.4 20.9 31.8 83.5 79.4 274.2
24 18:40 33.8 24 8.91 10.4 26 30 1000 0 19.3 20.8 31.7 83.2 79.0 272.8
24 18:30 33.6 27 9.92 12 24 35 1000.3 0 21.4 22.2 34.9 91.9 89.6 310.1
24 18:20 34.3 23 8.77 10.2 24 28 1000.4 0 19.0 20.6 31.1 81.6 77.1 266.3
24 18:10 34.9 21 8.26 9.3 20 26 1000.5 0 17.9 19.8 29.3 76.9 71.5 246.8
24 18:00 35 21 8.31 9.4 22 30 1000.6 0 18.0 19.8 29.4 77.2 71.9 248.2
24 17:50 35 21 8.31 9.4 30 32 1000.8 0 18.0 19.9 29.4 77.3 71.9 248.3
24 17:40 34.9 21 8.26 9.3 11 13 1001.2 0 17.9 19.8 29.3 77.0 71.6 246.9
24 17:30 35 21 8.31 9.4 13 17 1001.2 0 18.0 19.9 29.5 77.3 72.0 248.3
24 17:20 35.2 20 7.99 8.9 13 15 1001.5 0 17.4 19.4 28.5 74.6 68.7 236.9
24 17:10 35.1 20 7.95 8.8 13 13 1001.6 0 17.3 19.4 28.4 74.4 68.4 235.8
24 17:00 35.2 19 7.59 8.1 11 17 1001.7 0 16.6 19.0 27.3 71.5 64.9 223.5
24 16:50 35.2 19 7.59 8.1 11 13 1002.1 0 16.6 19.0 27.3 71.5 64.9 223.5
24 16:40 34.9 19 7.48 7.9 13 13 1002 0 16.4 18.9 27.1 70.9 64.1 220.6
24 16:30 34.9 19 7.48 7.9 13 19 1002.2 0 16.4 18.9 27.1 70.9 64.1 220.6
24 16:20 35 19 7.52 7.9 11 15 1002.3 0 16.4 18.9 27.2 71.2 64.4 221.7
24 16:10 34.9 21 8.26 9.3 19 22 1002.5 0 17.9 19.9 29.4 77.1 71.7 247.2
24 16:00 35 20 7.91 8.7 15 24 1002.9 0 17.2 19.4 28.3 74.3 68.2 235.0
24 15:50 35.2 20 7.99 8.9 17 19 1002.8 0 17.4 19.5 28.5 74.7 68.8 237.2
24 15:40 35.1 20 7.95 8.8 17 20 1003 0 17.3 19.5 28.4 74.5 68.5 236.1
24 15:30 34.9 22 8.66 10 13 19 1003.4 0 18.8 20.4 30.6 80.4 75.7 261.2
24 15:20 34.9 21 8.26 9.3 17 19 1003.6 0 17.9 19.9 29.4 77.2 71.7 247.4
24 15:10 34.8 21 8.22 9.3 20 24 1003.6 0 17.9 19.9 29.3 76.9 71.4 246.3
24 15:00 34.7 21 8.18 9.2 19 26 1003.5 0 17.8 19.8 29.3 76.7 71.1 245.2
24 14:50 35.3 18 7.23 7.4 17 19 1003.7 0 15.8 18.6 26.3 68.8 61.5 211.6
24 14:40 35.3 17 6.83 6.6 15 17 1003.6 0 15.0 18.1 25.2 65.8 57.8 198.4
24 14:30 35.3 18 7.23 7.4 26 39 1003.5 0 15.8 18.6 26.3 68.8 61.5 211.5
24 14:20 36.5 14 5.99 4.7 17 20 1003.6 0 13.3 17.0 22.5 58.7 49.4 169.0
24 14:10 36.5 13 5.56 3.7 22 24 1003.5 0 12.4 16.5 21.4 55.7 45.6 155.7
24 14:00 36.6 13 5.59 3.7 20 28 1003.2 0 12.5 16.5 21.4 55.8 45.8 156.4
24 13:50 36.9 13 5.67 4 19 24 1002.9 0 12.6 16.5 21.6 56.1 46.3 158.2
24 13:40 37.1 13 5.73 4.1 19 24 1003 0 12.7 16.6 21.7 56.4 46.7 159.7
24 13:30 36.7 13 5.62 3.8 24 30 1003 0 12.5 16.5 21.5 55.9 46.0 157.1
24 13:20 36.3 15 6.35 5.5 20 24 1002.9 0 14.0 17.4 23.5 61.4 52.7 180.6
24 13:10 36.3 17 7.19 7.4 22 26 1003.1 0 15.7 18.3 25.9 67.7 60.4 207.7
24 13:00 35.9 18 7.46 7.9 24 33 1003.2 0 16.3 18.7 26.8 70.0 63.2 217.6
24 12:50 35.1 19 7.55 8 24 26 1003.6 0 16.5 19.0 27.3 71.4 64.7 222.7
24 12:40 34.3 22 8.39 9.5 22 26 1003.8 0 18.2 20.2 30.0 78.8 73.5 253.7
24 12:30 33.4 24 8.73 10.1 17 20 1003.9 0 19.0 20.8 31.4 82.4 77.8 268.5
24 12:20 32.4 25 8.62 9.9 15 19 1004.1 0 18.8 20.9 31.4 82.5 77.6 267.8
24 12:10 31.8 27 9.02 10.5 13 17 1004.2 0 19.6 21.5 32.9 86.5 82.3 284.4
24 12:00 31.4 28 9.16 10.7 13 19 1004.2 0 19.9 21.8 33.5 88.1 84.2 290.9
24 11:50 30.7 29 9.13 10.6 13 15 1004.5 0 19.9 21.9 33.7 88.6 84.6 292.3
24 11:40 30.4 30 9.3 10.9 17 19 1004.4 0 20.3 22.2 34.4 90.4 86.8 299.8
24 11:30 29.8 32 9.6 11.3 19 24 1004.4 0 20.9 22.8 35.6 93.7 90.7 313.4
24 11:20 29.5 32 9.45 11.1 20 26 1004.6 0 20.6 22.7 35.3 92.7 89.4 308.9
24 11:10 29.2 33 9.58 11.3 19 20 1004.7 0 20.9 22.9 35.8 94.2 91.2 315.0
24 11:00 28.8 34 9.66 11.4 19 26 1004.8 0 21.1 23.1 36.3 95.4 92.5 319.7
24 10:50 28.5 35 9.78 11.6 17 19 1005.1 0 21.4 23.4 36.8 96.9 94.2 325.7
24 10:40 28.3 36 9.95 11.8 17 19 1005 0 21.7 23.7 37.5 98.7 96.4 333.2
24 10:30 28.2 37 10.17 12.1 22 33 1004.7 0 22.2 24.0 38.3 100.8 99.0 342.2
24 10:20 28.1 37 10.12 12.4 19 20 1005.1 0 22.1 24.0 38.2 100.5 98.5 340.8
24 10:10 28 38 10.33 12.4 22 26 1004.6 0 22.5 24.3 39.0 102.5 101.0 349.5
24 10:00 28 38 10.33 12.4 28 39 1004.8 0 22.5 24.3 39.0 102.5 101.0 349.5
24 09:50 28 38 10.33 12.4 28 32 1004.9 0 22.5 24.3 39.0 102.5 101.0 349.6
24 09:40 28 38 10.33 12.4 26 30 1005.2 0 22.5 24.3 39.0 102.6 101.1 349.6
24 09:30 28.2 37 10.17 12.5 24 33 1005 0 22.2 24.0 38.3 100.8 99.0 342.3
24 09:20 28.1 37 10.12 12.4 28 32 1005.2 0 22.1 24.0 38.2 100.5 98.5 340.8
24 09:10 27.9 38 10.28 12.3 22 26 1005.2 0 22.4 24.2 38.9 102.2 100.6 348.1
24 09:00 27.7 38 10.17 12.1 26 41 1005 0 22.2 24.1 38.6 101.4 99.6 344.4
24 08:50 27.5 39 10.32 12.3 26 37 1005 0 22.5 24.4 39.2 103.1 101.6 351.3
24 08:40 27.4 39 10.26 12.2 20 26 1006.5 0 22.4 24.4 39.1 102.8 101.1 349.8
24 08:30 27.3 40 10.47 12.5 26 35 1006.4 0 22.9 24.7 39.9 104.9 103.7 358.7
24 08:20 27.2 38 9.89 12 20 26 1006.9 0 21.7 23.9 37.9 99.6 97.1 335.8
24 08:10 27.1 39 10.09 12 15 20 1007 0 22.1 24.2 38.6 101.6 99.6 344.3
24 08:00 26.9 39 9.98 11.8 20 26 1006.8 0 21.9 24.1 38.3 100.8 98.5 340.6
24 07:50 26.9 40 10.24 12.2 19 22 1006.8 0 22.4 24.5 39.3 103.3 101.6 351.2
24 07:40 26.9 39 9.98 11.8 19 20 1006.4 0 21.9 24.1 38.3 100.8 98.5 340.5
24 07:30 26.9 39 9.98 11.8 15 20 1006.1 0 21.9 24.1 38.3 100.8 98.5 340.5
24 07:20 26.8 38 9.67 11.3 17 20 1005.7 0 21.2 23.7 37.3 98.0 95.0 328.3
24 07:10 26.7 38 9.62 11.2 11 17 1004.7 0 21.1 23.6 37.1 97.5 94.5 326.4
24 07:00 26.7 38 9.62 11.2 15 19 1004.5 0 21.1 23.6 37.1 97.5 94.5 326.4
24 06:50 26.7 38 9.62 11.2 15 19 1004.6 0 21.1 23.6 37.1 97.5 94.5 326.4
24 06:40 26.8 38 9.67 11.3 15 17 1004.7 0 21.2 23.6 37.2 97.9 94.9 328.0
24 06:30 26.8 38 9.67 11.3 19 28 1004.4 0 21.2 23.6 37.2 97.8 94.9 327.9
24 06:20 26.8 38 9.67 11.3 20 24 1004.6 0 21.2 23.6 37.2 97.9 94.9 328.0
24 06:10 26.9 37 9.47 11 15 17 1004.5 0 20.8 23.3 36.5 95.9 92.5 319.6
24 06:00 26.9 38 9.73 11.4 20 33 1004.1 0 21.3 23.7 37.4 98.2 95.5 329.9
24 05:50 27 37 9.52 11.1 17 20 1004.5 0 20.9 23.4 36.6 96.2 93.0 321.2
24 05:40 27 37 9.52 11.1 19 26 1004.1 0 20.9 23.4 36.6 96.2 92.9 321.1
24 05:30 27.2 37 9.63 11.3 20 30 1003.9 0 21.1 23.5 36.9 96.9 93.9 324.6
24 05:20 27.2 36 9.37 10.8 26 32 1003.9 0 20.6 23.1 36.0 94.6 91.0 314.3
24 04:50 27.6 35 9.31 10.8 28 33 1003.8 0 20.4 22.9 35.6 93.5 89.9 310.4
24 04:40 27.8 34 9.15 10.5 22 32 1004 0 20.1 22.7 35.0 91.9 87.9 303.5
24 04:30 28 34 9.25 10.7 26 35 1003.9 0 20.3 22.7 35.2 92.6 88.8 306.6
24 04:20 28.2 33 9.07 10.4 26 30 1004 0 19.9 22.4 34.5 90.7 86.6 298.9
24 04:10 28.5 32 8.94 10.2 26 32 1004 0 19.6 22.2 34.0 89.2 84.8 292.8
24 04:00 28.8 31 8.81 10 24 33 1003.7 0 19.3 21.9 33.4 87.8 83.1 286.8
24 03:50 28.9 31 8.86 10.1 24 28 1003.7 0 19.4 22.0 33.5 88.1 83.5 288.3
24 03:40 29.3 29 8.47 9.4 28 33 1003.7 0 18.6 21.4 32.1 84.3 79.0 272.3
24 03:30 29.7 26 7.76 8.2 32 41 1003.5 0 17.1 20.4 29.7 77.9 71.2 245.0
24 03:20 30 24 7.28 7.2 30 37 1003.6 0 16.1 19.7 28.1 73.6 66.0 227.0
24 03:10 30.4 23 7.13 7 41 50 1003.4 0 15.8 19.4 27.5 72.1 64.2 220.6
24 03:00 32.1 18 6.11 4.8 24 43 1003.2 0 13.7 17.9 24.0 62.7 53.1 181.8

Last Refresh: 24-Jan-2021 20:05:25

Most of the information presented on this site is sourced from the Bureau of Meteorology.  Copyright in all material sourced from the Bureau of Meteorology resides with the Commonwealth of Australia.